Time;durP1;ratioP1;P1;durP2;ratioP2;P2;SDS_P1;SDS_P2;PMS_P1;PMS_P2;Temp;Humidity;BMP_temperature;BMP_pressure;BME280_temperature;BME280_humidity;BME280_pressure;Samples;Min_cycle;Max_cycle;Signal;HPM_P1;HPM_P2
2023/09/17 00:00:53;;;;;;;21.48;19.40;;;23.10;73.30;;;;;;5024609;28;20128;-47
2023/09/17 00:03:23;;;;;;;21.33;19.23;;;23.10;73.40;;;;;;5029662;28;20041;-52
2023/09/17 00:05:49;;;;;;;21.77;19.63;;;23.10;73.40;;;;;;5027383;28;20061;-48
2023/09/17 00:08:18;;;;;;;21.10;19.00;;;23.10;73.40;;;;;;5030024;28;20037;-49
2023/09/17 00:10:49;;;;;;;19.33;17.45;;;23.10;73.50;;;;;;5025763;28;20073;-49
2023/09/17 00:13:16;;;;;;;20.20;18.10;;;23.00;73.40;;;;;;5025767;28;20120;-48
2023/09/17 00:15:43;;;;;;;18.95;17.15;;;23.00;73.50;;;;;;5031236;28;20038;-51
2023/09/17 00:18:12;;;;;;;19.10;17.20;;;23.00;73.60;;;;;;5029269;28;20550;-48
2023/09/17 00:20:41;;;;;;;18.40;16.77;;;23.00;73.70;;;;;;5029719;28;20037;-51
2023/09/17 00:23:09;;;;;;;18.65;16.90;;;23.00;73.90;;;;;;5029674;28;20049;-48
2023/09/17 00:25:35;;;;;;;18.70;16.92;;;23.00;74.60;;;;;;5030932;28;20045;-51
2023/09/17 00:28:03;;;;;;;20.45;18.48;;;23.00;74.10;;;;;;5028419;28;20041;-48
2023/09/17 00:30:29;;;;;;;20.60;18.70;;;23.00;74.30;;;;;;5026812;28;20115;-50
2023/09/17 00:32:56;;;;;;;19.83;17.85;;;23.00;74.30;;;;;;5028364;28;20088;-50
2023/09/17 00:35:23;;;;;;;18.85;17.05;;;23.00;74.30;;;;;;5021553;28;20034;-51
2023/09/17 00:37:51;;;;;;;19.45;17.75;;;23.10;74.20;;;;;;5026718;28;20045;-50
2023/09/17 00:40:28;;;;;;;19.00;17.23;;;23.00;74.00;;;;;;5024074;28;20054;-53
2023/09/17 00:43:02;;;;;;;18.45;16.58;;;23.00;74.40;;;;;;5027835;28;20502;-49
2023/09/17 00:45:31;;;;;;;17.80;16.17;;;23.10;74.00;;;;;;5030233;28;20049;-49
2023/09/17 00:48:00;;;;;;;17.33;15.73;;;23.10;73.90;;;;;;5024184;28;20095;-49
2023/09/17 00:50:27;;;;;;;17.13;15.38;;;23.00;73.90;;;;;;5030052;28;20453;-50
2023/09/17 00:52:54;;;;;;;16.92;15.27;;;23.00;73.90;;;;;;5027928;28;20037;-47
2023/09/17 00:55:25;;;;;;;17.55;15.57;;;23.00;73.90;;;;;;5024132;28;20557;-48
2023/09/17 00:57:52;;;;;;;17.37;15.57;;;23.00;74.00;;;;;;5029185;28;20598;-49
2023/09/17 01:00:21;;;;;;;19.15;15.55;;;23.00;73.90;;;;;;5028189;28;20350;-48
2023/09/17 01:02:51;;;;;;;18.00;16.13;;;23.00;74.10;;;;;;5017644;28;20107;-49
2023/09/17 01:05:25;;;;;;;16.90;15.15;;;23.00;74.00;;;;;;5022099;28;20288;-48
2023/09/17 01:07:53;;;;;;;17.95;15.88;;;23.00;74.00;;;;;;5041060;28;20400;-49
2023/09/17 01:10:24;;;;;;;16.73;14.70;;;23.00;74.20;;;;;;5020144;28;20499;-49
2023/09/17 01:12:54;;;;;;;16.42;14.82;;;23.00;74.10;;;;;;5025987;28;20052;-49
2023/09/17 01:15:21;;;;;;;16.45;14.05;;;23.00;74.00;;;;;;5023214;28;20033;-48
2023/09/17 01:17:53;;;;;;;15.77;14.13;;;23.00;74.70;;;;;;5028415;28;20045;-47
2023/09/17 01:20:25;;;;;;;14.65;13.32;;;22.90;74.10;;;;;;5030015;28;20037;-47
2023/09/17 01:23:11;;;;;;;16.50;14.55;;;22.90;74.00;;;;;;5038827;28;20052;-51
2023/09/17 01:25:48;;;;;;;17.05;14.95;;;22.90;74.50;;;;;;5028406;28;20049;-47
2023/09/17 01:28:18;;;;;;;14.77;13.20;;;22.90;74.90;;;;;;5023827;28;20049;-49
2023/09/17 01:30:48;;;;;;;15.30;13.77;;;22.90;74.80;;;;;;5028300;28;20041;-50
2023/09/17 01:33:15;;;;;;;15.13;13.52;;;22.90;75.10;;;;;;5018788;28;20105;-50
2023/09/17 01:36:13;;;;;;;15.73;14.13;;;22.90;74.90;;;;;;5016987;28;20038;-49
2023/09/17 01:39:04;;;;;;;15.68;13.82;;;22.90;75.50;;;;;;5038265;28;20128;-51
2023/09/17 01:41:34;;;;;;;16.30;14.05;;;22.90;75.60;;;;;;5024333;28;20069;-49
2023/09/17 01:44:03;;;;;;;16.15;14.48;;;22.90;75.40;;;;;;5022787;28;20045;-48
2023/09/17 01:46:32;;;;;;;19.92;13.77;;;22.80;75.30;;;;;;5029571;28;20069;-53
2023/09/17 01:49:05;;;;;;;15.27;13.77;;;22.80;75.60;;;;;;5023347;28;20128;-48
2023/09/17 01:51:32;;;;;;;15.13;13.65;;;22.80;75.60;;;;;;5022037;28;20468;-50
2023/09/17 01:54:02;;;;;;;15.65;14.05;;;22.80;75.70;;;;;;5026565;28;20774;-50
2023/09/17 01:56:29;;;;;;;15.13;12.90;;;22.80;75.60;;;;;;5028270;28;20064;-47
2023/09/17 01:58:56;;;;;;;13.65;12.35;;;22.80;75.60;;;;;;5027299;28;20456;-50
2023/09/17 02:01:22;;;;;;;15.55;13.93;;;22.80;75.60;;;;;;5023151;28;20034;-52
2023/09/17 02:03:51;;;;;;;13.57;12.23;;;22.80;75.80;;;;;;5026025;28;20045;-51
2023/09/17 02:06:19;;;;;;;14.38;12.98;;;22.80;75.80;;;;;;5021607;28;20042;-51
2023/09/17 02:08:45;;;;;;;14.82;13.27;;;22.80;75.90;;;;;;5025045;28;20076;-50
2023/09/17 02:11:14;;;;;;;14.13;12.25;;;22.80;75.90;;;;;;5026132;28;20038;-49
2023/09/17 02:13:43;;;;;;;14.27;12.77;;;22.80;76.00;;;;;;5017847;28;20128;-50
2023/09/17 02:16:10;;;;;;;15.95;12.73;;;22.80;75.90;;;;;;5029498;28;20514;-49
2023/09/17 02:18:37;;;;;;;17.02;13.27;;;22.80;75.90;;;;;;5027824;28;20088;-50
2023/09/17 02:21:05;;;;;;;15.88;13.43;;;22.80;75.60;;;;;;5026964;28;20065;-51
2023/09/17 02:23:32;;;;;;;15.30;13.65;;;22.90;75.70;;;;;;5026384;28;20140;-49
2023/09/17 02:25:59;;;;;;;16.40;14.60;;;22.90;75.60;;;;;;5028537;28;20037;-48
2023/09/17 02:28:26;;;;;;;16.67;14.82;;;22.80;75.50;;;;;;5028165;28;20045;-49
2023/09/17 02:30:53;;;;;;;18.73;15.38;;;22.80;75.50;;;;;;5025315;28;20101;-49
2023/09/17 02:33:24;;;;;;;17.88;16.08;;;22.90;75.80;;;;;;5025601;28;20498;-53
2023/09/17 02:35:53;;;;;;;17.92;16.00;;;22.80;75.80;;;;;;5025189;28;20120;-49
2023/09/17 02:38:26;;;;;;;24.05;18.00;;;22.80;75.80;;;;;;5025726;28;20109;-48
2023/09/17 02:40:53;;;;;;;20.27;17.65;;;22.80;75.80;;;;;;5009242;28;20050;-52
2023/09/17 02:43:20;;;;;;;22.35;17.17;;;22.80;76.10;;;;;;5026175;28;20379;-51
2023/09/17 02:45:49;;;;;;;20.30;17.75;;;22.70;76.10;;;;;;5026723;28;20053;-50
2023/09/17 02:48:20;;;;;;;20.55;18.38;;;22.70;76.10;;;;;;5026241;28;20045;-52
2023/09/17 02:50:46;;;;;;;23.80;19.27;;;22.70;76.10;;;;;;5026169;28;20049;-47
2023/09/17 02:53:16;;;;;;;25.98;20.27;;;22.60;76.50;;;;;;5025822;28;20042;-52
2023/09/17 02:55:47;;;;;;;22.27;19.67;;;22.60;76.60;;;;;;5027655;28;20056;-48
2023/09/17 02:58:15;;;;;;;22.80;20.38;;;22.60;76.70;;;;;;5031435;28;20053;-51
2023/09/17 03:00:44;;;;;;;23.15;19.88;;;22.60;76.90;;;;;;5029997;28;20423;-50
2023/09/17 03:03:15;;;;;;;20.88;18.23;;;22.60;77.00;;;;;;5029887;28;20065;-48
2023/09/17 03:05:46;;;;;;;23.95;21.15;;;22.50;76.90;;;;;;5024340;28;20045;-47
2023/09/17 03:08:14;;;;;;;23.48;20.98;;;22.50;77.10;;;;;;5023301;28;20411;-50
2023/09/17 03:10:44;;;;;;;23.70;21.27;;;22.50;77.20;;;;;;5028682;28;20049;-48
2023/09/17 03:13:14;;;;;;;22.55;18.83;;;22.50;77.30;;;;;;5029761;28;20422;-51
2023/09/17 03:15:44;;;;;;;23.10;20.63;;;22.60;77.40;;;;;;5021614;28;20042;-47
2023/09/17 03:18:14;;;;;;;25.55;22.80;;;22.50;77.40;;;;;;5029791;28;20037;-48
2023/09/17 03:20:44;;;;;;;23.25;20.73;;;22.60;77.60;;;;;;5027451;28;20052;-47
2023/09/17 03:23:11;;;;;;;22.52;19.55;;;22.50;77.40;;;;;;5030754;28;20052;-49
2023/09/17 03:25:39;;;;;;;23.98;21.48;;;22.60;77.40;;;;;;5031105;28;20467;-51
2023/09/17 03:28:06;;;;;;;21.67;19.38;;;22.60;77.60;;;;;;5023538;28;20037;-50
2023/09/17 03:30:33;;;;;;;23.48;20.98;;;22.60;77.50;;;;;;5028340;28;20049;-51
2023/09/17 03:33:03;;;;;;;21.70;19.17;;;22.60;77.60;;;;;;5027929;28;20045;-49
2023/09/17 03:35:41;;;;;;;22.90;19.15;;;22.60;77.50;;;;;;5021998;28;20100;-51
2023/09/17 03:38:08;;;;;;;23.83;20.77;;;22.60;77.40;;;;;;5029333;28;20064;-49
2023/09/17 03:40:36;;;;;;;22.85;19.80;;;22.70;77.30;;;;;;5031581;28;20042;-51
2023/09/17 03:43:03;;;;;;;21.88;19.42;;;22.70;77.30;;;;;;5027156;28;20043;-52
2023/09/17 03:45:34;;;;;;;22.10;19.77;;;22.70;77.30;;;;;;5025650;28;20034;-48
2023/09/17 03:48:07;;;;;;;24.58;21.30;;;22.70;77.40;;;;;;5029197;28;20100;-50
2023/09/17 03:50:39;;;;;;;23.08;20.73;;;22.70;77.10;;;;;;5030601;28;20046;-51
2023/09/17 03:53:08;;;;;;;24.35;21.75;;;22.70;77.20;;;;;;5025779;28;20056;-49
2023/09/17 03:55:37;;;;;;;25.52;22.83;;;22.70;77.10;;;;;;5031721;28;20550;-48
2023/09/17 03:58:08;;;;;;;25.42;22.73;;;22.70;76.90;;;;;;5028572;28;20048;-48
2023/09/17 04:00:41;;;;;;;28.00;23.75;;;22.80;77.00;;;;;;5023744;28;20045;-52
2023/09/17 04:03:08;;;;;;;26.92;24.17;;;22.80;76.90;;;;;;5025401;28;20056;-47
2023/09/17 04:05:38;;;;;;;24.80;22.20;;;22.80;76.80;;;;;;5022248;28;20080;-51
2023/09/17 04:08:14;;;;;;;27.50;23.02;;;22.80;76.90;;;;;;5029567;28;20045;-49
2023/09/17 04:10:42;;;;;;;24.83;22.15;;;22.80;77.00;;;;;;5021555;28;20053;-48
2023/09/17 04:13:12;;;;;;;24.73;22.20;;;22.80;76.80;;;;;;5022597;28;20042;-49
2023/09/17 04:15:41;;;;;;;28.60;22.60;;;22.80;76.70;;;;;;5025889;28;20050;-50
2023/09/17 04:18:10;;;;;;;25.33;22.83;;;22.80;76.70;;;;;;5028884;28;20124;-51
2023/09/17 04:20:37;;;;;;;25.17;21.70;;;22.80;76.60;;;;;;5028902;28;20096;-50
2023/09/17 04:23:04;;;;;;;27.73;24.65;;;22.80;76.60;;;;;;5024293;28;20076;-51
2023/09/17 04:25:34;;;;;;;25.02;22.42;;;22.70;76.50;;;;;;5028411;28;20052;-49
2023/09/17 04:28:05;;;;;;;25.17;22.67;;;22.80;76.60;;;;;;5029805;28;20522;-50
2023/09/17 04:30:36;;;;;;;24.80;22.08;;;22.70;76.50;;;;;;5029193;28;20045;-48
2023/09/17 04:33:03;;;;;;;25.42;22.67;;;22.70;76.60;;;;;;5025754;28;20041;-51
2023/09/17 04:35:30;;;;;;;24.25;21.65;;;22.70;76.50;;;;;;5026708;28;20038;-49
2023/09/17 04:37:56;;;;;;;23.38;20.92;;;22.80;76.70;;;;;;5020550;28;20041;-51
2023/09/17 04:40:29;;;;;;;21.90;19.63;;;22.70;76.70;;;;;;5028733;28;20034;-50
2023/09/17 04:43:08;;;;;;;23.33;20.92;;;22.70;76.60;;;;;;5025342;28;20056;-49
2023/09/17 04:45:42;;;;;;;21.45;19.25;;;22.80;76.60;;;;;;5023581;28;20585;-51
2023/09/17 04:48:27;;;;;;;;;;;22.80;76.90;;;;;;5022475;28;20045;-51
2023/09/17 04:50:54;;;;;;;17.67;15.93;;;22.90;76.70;;;;;;5021314;28;19925;-47
2023/09/17 04:53:24;;;;;;;21.13;19.05;;;22.80;76.20;;;;;;5018859;28;20125;-51
2023/09/17 04:55:50;;;;;;;22.88;20.55;;;22.80;76.40;;;;;;5026729;28;20041;-52
2023/09/17 04:58:23;;;;;;;22.08;19.80;;;22.80;76.30;;;;;;5020016;28;20095;-49
2023/09/17 05:00:56;;;;;;;22.90;20.52;;;22.80;76.40;;;;;;5021599;28;20049;-52
2023/09/17 05:03:24;;;;;;;24.30;21.52;;;22.80;76.70;;;;;;5021026;28;20046;-47
2023/09/17 05:05:56;;;;;;;22.40;20.05;;;22.80;76.60;;;;;;5023575;28;20041;-53
2023/09/17 05:08:24;;;;;;;23.23;21.02;;;22.80;76.80;;;;;;5028393;28;20042;-49
2023/09/17 05:10:52;;;;;;;22.55;20.35;;;22.80;76.70;;;;;;5025146;28;20046;-54
2023/09/17 05:13:26;;;;;;;23.17;20.88;;;22.80;76.80;;;;;;5021440;28;20072;-48
2023/09/17 05:15:55;;;;;;;23.83;21.50;;;22.70;76.80;;;;;;5018528;28;20076;-50
2023/09/17 05:18:25;;;;;;;23.95;21.38;;;22.70;76.70;;;;;;5023948;28;20060;-51
2023/09/17 05:20:55;;;;;;;23.75;21.30;;;22.70;76.60;;;;;;5011141;28;20542;-51
2023/09/17 05:23:24;;;;;;;24.52;21.90;;;22.80;76.80;;;;;;5029249;28;20045;-47
2023/09/17 05:25:56;;;;;;;23.15;20.88;;;22.80;76.80;;;;;;5029335;28;20080;-47
2023/09/17 05:28:31;;;;;;;24.05;21.55;;;22.80;76.80;;;;;;5029295;28;20037;-50
2023/09/17 05:31:00;;;;;;;25.57;22.90;;;22.70;76.80;;;;;;5024277;28;20872;-47
2023/09/17 05:33:32;;;;;;;24.00;21.50;;;22.80;76.80;;;;;;5025632;28;20311;-48
2023/09/17 05:36:00;;;;;;;24.98;22.48;;;22.80;76.90;;;;;;5027558;28;20064;-47
2023/09/17 05:38:27;;;;;;;23.23;20.88;;;22.80;76.90;;;;;;5027779;28;20051;-47
2023/09/17 05:40:54;;;;;;;25.48;22.80;;;22.70;76.90;;;;;;5027002;28;20507;-51
2023/09/17 05:43:26;;;;;;;22.77;20.45;;;22.70;76.90;;;;;;5025737;28;20044;-49
2023/09/17 05:45:56;;;;;;;24.58;21.98;;;22.80;77.10;;;;;;5027033;28;20050;-47
2023/09/17 05:48:29;;;;;;;26.30;22.38;;;22.80;77.00;;;;;;5027773;28;20056;-49
2023/09/17 05:50:56;;;;;;;24.20;21.63;;;22.70;77.00;;;;;;5027932;28;20064;-51
2023/09/17 05:53:28;;;;;;;23.98;21.48;;;22.70;77.10;;;;;;5024031;28;20038;-48
2023/09/17 05:55:55;;;;;;;21.75;19.40;;;22.80;77.10;;;;;;5028183;28;20056;-51
2023/09/17 05:58:26;;;;;;;24.13;21.70;;;22.80;77.20;;;;;;5020558;28;20052;-49
2023/09/17 06:00:53;;;;;;;22.75;20.35;;;22.80;77.20;;;;;;5019256;28;20531;-51
2023/09/17 06:03:20;;;;;;;24.02;21.45;;;22.80;77.00;;;;;;5019294;28;20133;-48
2023/09/17 06:05:47;;;;;;;24.38;21.75;;;22.80;77.10;;;;;;5019741;28;20050;-52
2023/09/17 06:08:16;;;;;;;23.05;20.73;;;22.80;77.10;;;;;;5026194;28;20073;-51
2023/09/17 06:10:48;;;;;;;22.17;19.48;;;22.80;77.80;;;;;;5019188;28;20758;-50
2023/09/17 06:13:18;;;;;;;22.63;20.17;;;22.80;77.30;;;;;;5021220;28;20045;-48
2023/09/17 06:15:45;;;;;;;26.38;21.90;;;22.80;77.30;;;;;;5025637;28;20538;-52
2023/09/17 06:18:16;;;;;;;25.20;22.17;;;22.80;77.20;;;;;;5019922;28;20132;-50
2023/09/17 06:20:47;;;;;;;24.58;21.95;;;22.80;77.10;;;;;;5015432;28;20835;-47
2023/09/17 06:23:16;;;;;;;27.13;21.98;;;22.80;77.20;;;;;;5015817;28;20144;-47
2023/09/17 06:25:43;;;;;;;24.05;21.45;;;22.90;77.20;;;;;;5010307;28;20827;-52
2023/09/17 06:28:10;;;;;;;24.63;22.00;;;22.80;77.20;;;;;;5021714;28;20139;-47
2023/09/17 06:30:36;;;;;;;24.65;21.63;;;22.80;77.30;;;;;;5021000;28;20049;-50
2023/09/17 06:33:06;;;;;;;23.60;21.13;;;22.80;77.40;;;;;;5031670;28;20040;-47
2023/09/17 06:35:34;;;;;;;25.77;22.98;;;22.90;77.60;;;;;;5009376;28;20051;-47
2023/09/17 06:38:01;;;;;;;27.58;24.67;;;22.90;77.60;;;;;;5040671;28;20493;-52
2023/09/17 06:40:27;;;;;;;26.35;23.55;;;22.90;77.60;;;;;;5027270;28;20042;-50
2023/09/17 06:42:54;;;;;;;28.05;25.10;;;23.00;77.70;;;;;;5023546;28;20042;-51
2023/09/17 06:45:22;;;;;;;27.80;24.23;;;23.00;77.60;;;;;;5031674;28;20041;-48
2023/09/17 06:47:49;;;;;;;26.48;23.55;;;23.00;77.60;;;;;;5036980;28;20079;-49
2023/09/17 06:50:16;;;;;;;25.80;22.75;;;23.00;77.60;;;;;;5031043;28;20045;-50
2023/09/17 06:52:42;;;;;;;27.48;23.52;;;23.10;77.60;;;;;;5028419;28;20072;-49
2023/09/17 06:55:09;;;;;;;24.52;21.88;;;23.10;77.60;;;;;;5030524;28;20042;-49
2023/09/17 06:57:37;;;;;;;26.77;23.98;;;23.20;77.70;;;;;;5032091;28;20037;-48
2023/09/17 07:00:07;;;;;;;25.05;22.35;;;23.20;77.80;;;;;;5026707;28;20037;-51
2023/09/17 07:02:33;;;;;;;25.10;21.48;;;23.20;77.90;;;;;;5030882;28;20092;-50
2023/09/17 07:05:03;;;;;;;26.80;22.90;;;23.30;77.90;;;;;;5022526;28;20045;-49
2023/09/17 07:07:30;;;;;;;23.65;20.83;;;23.30;77.90;;;;;;5031091;28;20754;-51
2023/09/17 07:09:57;;;;;;;22.13;19.70;;;23.40;77.70;;;;;;5031514;28;20044;-51
2023/09/17 07:12:24;;;;;;;25.77;22.25;;;23.40;77.70;;;;;;5032244;28;20407;-48
2023/09/17 07:14:50;;;;;;;24.25;20.02;;;23.50;77.60;;;;;;5031763;28;20121;-51
2023/09/17 07:17:17;;;;;;;21.85;19.48;;;23.50;77.50;;;;;;5015505;28;20605;-49
2023/09/17 07:19:44;;;;;;;21.48;18.95;;;23.60;77.40;;;;;;5030177;28;20049;-49
2023/09/17 07:22:14;;;;;;;20.20;17.65;;;23.70;77.40;;;;;;5031574;28;20041;-53
2023/09/17 07:24:42;;;;;;;19.48;15.95;;;23.70;77.20;;;;;;5028203;28;20438;-51
2023/09/17 07:27:08;;;;;;;16.67;14.75;;;23.80;77.20;;;;;;5028410;28;20041;-49
2023/09/17 07:29:35;;;;;;;15.85;13.73;;;23.80;76.80;;;;;;5031380;28;20109;-47
2023/09/17 07:32:02;;;;;;;13.50;12.05;;;23.90;76.80;;;;;;5030809;28;20132;-50
2023/09/17 07:34:30;;;;;;;14.15;12.57;;;23.90;76.80;;;;;;5027580;28;20072;-49
2023/09/17 07:36:59;;;;;;;13.52;10.73;;;24.00;76.80;;;;;;5030930;28;20050;-49
2023/09/17 07:39:26;;;;;;;11.30;8.60;;;24.00;76.50;;;;;;5030985;28;21066;-48
2023/09/17 07:41:53;;;;;;;9.25;8.35;;;24.10;75.90;;;;;;5030892;28;20056;-48
2023/09/17 07:44:20;;;;;;;9.05;8.15;;;24.10;75.70;;;;;;5027474;28;20080;-48
2023/09/17 07:46:47;;;;;;;8.35;7.65;;;24.10;75.40;;;;;;5031030;28;20128;-51
2023/09/17 07:49:13;;;;;;;9.10;7.10;;;24.20;75.50;;;;;;5028938;28;20037;-48
2023/09/17 07:51:40;;;;;;;8.02;7.05;;;24.20;75.30;;;;;;5031710;28;20045;-52
2023/09/17 07:54:07;;;;;;;8.18;6.88;;;24.20;75.40;;;;;;5029746;28;20041;-50
2023/09/17 07:56:33;;;;;;;6.78;6.03;;;24.20;75.40;;;;;;5026592;28;20045;-51
2023/09/17 07:59:01;;;;;;;6.45;5.50;;;24.20;75.10;;;;;;5029355;28;20057;-50
2023/09/17 08:01:28;;;;;;;6.13;5.60;;;24.20;74.80;;;;;;5030478;28;20147;-50
2023/09/17 08:03:55;;;;;;;6.38;5.63;;;24.20;74.70;;;;;;5028064;28;20472;-50
2023/09/17 08:06:25;;;;;;;5.97;5.22;;;24.20;74.80;;;;;;5028997;28;20041;-53
2023/09/17 08:08:52;;;;;;;7.90;6.40;;;24.10;74.60;;;;;;5029975;28;20128;-53
2023/09/17 08:11:19;;;;;;;7.57;5.55;;;24.10;75.00;;;;;;5030847;28;20096;-48
2023/09/17 08:13:47;;;;;;;7.80;6.18;;;24.10;75.30;;;;;;5028289;28;20096;-50
2023/09/17 08:16:15;;;;;;;5.47;5.05;;;24.10;75.50;;;;;;5030217;28;20045;-52
2023/09/17 08:18:42;;;;;;;6.72;5.65;;;24.10;75.20;;;;;;5030341;28;20120;-50
2023/09/17 08:21:08;;;;;;;5.60;5.00;;;24.10;75.40;;;;;;5031392;28;20041;-50
2023/09/17 08:23:35;;;;;;;6.63;4.97;;;24.20;75.70;;;;;;5028261;28;20443;-50
2023/09/17 08:26:04;;;;;;;6.28;5.22;;;24.20;75.30;;;;;;5030656;28;20045;-50
2023/09/17 08:28:31;;;;;;;6.15;4.97;;;24.30;74.90;;;;;;5029994;28;20053;-50
2023/09/17 08:30:58;;;;;;;5.55;4.75;;;24.30;75.00;;;;;;5027412;28;20052;-49
2023/09/17 08:33:24;;;;;;;5.65;4.57;;;24.30;74.80;;;;;;5029564;28;20696;-50
2023/09/17 08:35:51;;;;;;;5.07;4.57;;;24.40;74.50;;;;;;5027782;28;20245;-51
2023/09/17 08:38:18;;;;;;;6.72;5.03;;;24.40;74.00;;;;;;5029768;28;20076;-51
2023/09/17 08:40:46;;;;;;;6.97;4.70;;;24.40;73.90;;;;;;5030741;28;20068;-52
2023/09/17 08:43:16;;;;;;;5.88;5.10;;;24.40;73.40;;;;;;5027858;28;20071;-50
2023/09/17 08:45:43;;;;;;;5.03;4.53;;;24.40;73.70;;;;;;5030344;28;20041;-47
2023/09/17 08:48:09;;;;;;;4.28;3.92;;;24.40;74.00;;;;;;5030148;28;20135;-47
2023/09/17 08:50:37;;;;;;;6.47;4.30;;;24.40;74.60;;;;;;5030376;28;20041;-51
2023/09/17 08:53:06;;;;;;;5.88;3.75;;;24.50;74.50;;;;;;5018975;28;20092;-50
2023/09/17 08:55:33;;;;;;;4.97;4.43;;;24.50;74.50;;;;;;5029507;28;20049;-50
2023/09/17 08:58:15;;;;;;;5.07;3.67;;;24.60;74.30;;;;;;5029239;28;20045;-50
2023/09/17 09:00:48;;;;;;;4.00;3.70;;;24.70;73.90;;;;;;5024956;28;20491;-49
2023/09/17 09:03:17;;;;;;;5.75;4.15;;;24.70;73.30;;;;;;5028157;28;20821;-51
2023/09/17 09:05:49;;;;;;;4.15;3.85;;;24.70;73.10;;;;;;5025546;28;20150;-52
2023/09/17 09:08:17;;;;;;;4.75;4.28;;;24.80;72.50;;;;;;5029027;28;20128;-52
2023/09/17 09:10:44;;;;;;;4.03;3.63;;;24.80;72.50;;;;;;5030072;28;20045;-49
2023/09/17 09:13:12;;;;;;;3.97;3.67;;;24.80;72.50;;;;;;5027483;28;20042;-49
2023/09/17 09:15:40;;;;;;;5.20;3.65;;;24.80;72.60;;;;;;5011884;28;20033;-50
2023/09/17 09:18:08;;;;;;;3.92;3.63;;;24.80;72.30;;;;;;5024493;28;20502;-48
2023/09/17 09:20:37;;;;;;;4.68;4.28;;;24.80;72.00;;;;;;5028710;28;20125;-52
2023/09/17 09:23:05;;;;;;;4.70;4.30;;;24.90;71.80;;;;;;5027453;28;20550;-49
2023/09/17 09:25:33;;;;;;;4.70;3.55;;;24.90;71.90;;;;;;5028218;28;20418;-49
2023/09/17 09:28:04;;;;;;;3.92;3.63;;;24.90;72.10;;;;;;5029232;28;20041;-52
2023/09/17 09:30:30;;;;;;;4.15;3.30;;;24.90;71.80;;;;;;5028637;28;20537;-47
2023/09/17 09:32:57;;;;;;;3.58;3.28;;;24.90;71.60;;;;;;5029630;28;20129;-49
2023/09/17 09:35:25;;;;;;;4.18;3.78;;;24.90;71.10;;;;;;5025624;28;20069;-49
2023/09/17 09:37:55;;;;;;;5.30;4.38;;;24.90;71.50;;;;;;5028890;28;20491;-51
2023/09/17 09:40:24;;;;;;;4.22;3.08;;;24.90;71.80;;;;;;5028856;28;20183;-50
2023/09/17 09:42:51;;;;;;;3.95;3.50;;;24.90;71.60;;;;;;5027458;28;20044;-50
2023/09/17 09:45:18;;;;;;;3.47;3.00;;;25.00;71.10;;;;;;5024825;28;20499;-52
2023/09/17 09:47:49;;;;;;;4.70;3.50;;;25.00;71.20;;;;;;5025567;28;20069;-51
2023/09/17 09:50:27;;;;;;;4.88;3.70;;;25.00;71.00;;;;;;5028232;28;20545;-52
2023/09/17 09:52:55;;;;;;;5.50;3.40;;;25.10;71.50;;;;;;5027796;28;20129;-52
2023/09/17 09:55:27;;;;;;;3.75;3.33;;;25.10;71.70;;;;;;5028738;28;20033;-52
2023/09/17 09:57:53;;;;;;;;;;;25.20;71.20;;;;;;5026756;28;20116;-50
2023/09/17 10:00:29;;;;;;;3.40;3.10;;;25.40;71.50;;;;;;5027239;28;20577;-51
2023/09/17 10:02:56;;;;;;;3.33;3.13;;;25.40;70.20;;;;;;5027809;28;20466;-48
2023/09/17 10:05:37;;;;;;;3.22;3.00;;;25.40;69.40;;;;;;5026712;28;20060;-50
2023/09/17 10:08:06;;;;;;;4.70;3.03;;;25.60;69.10;;;;;;5029451;28;20437;-48
2023/09/17 10:10:34;;;;;;;3.45;2.90;;;25.60;69.70;;;;;;5029162;28;20041;-47
2023/09/17 10:13:08;;;;;;;3.38;3.05;;;25.60;69.60;;;;;;5028126;28;20045;-51
2023/09/17 10:15:36;;;;;;;2.80;2.60;;;25.70;69.40;;;;;;5025689;28;20120;-52
2023/09/17 10:18:05;;;;;;;2.75;2.55;;;25.70;69.10;;;;;;5028578;28;20041;-51
2023/09/17 10:20:35;;;;;;;4.25;3.38;;;25.80;68.80;;;;;;5029440;28;20466;-50
2023/09/17 10:23:03;;;;;;;2.90;2.70;;;25.90;69.10;;;;;;5029167;28;20033;-51
2023/09/17 10:25:33;;;;;;;3.33;2.80;;;26.00;68.50;;;;;;5027124;28;20414;-52
2023/09/17 10:28:02;;;;;;;3.17;2.97;;;26.10;68.70;;;;;;5028541;28;20033;-51
2023/09/17 10:30:32;;;;;;;3.42;3.00;;;26.20;68.90;;;;;;5027204;28;20051;-53
2023/09/17 10:33:00;;;;;;;2.75;2.42;;;26.40;68.50;;;;;;5028941;28;20083;-51
2023/09/17 10:35:30;;;;;;;3.22;2.67;;;26.60;68.30;;;;;;5024718;28;20504;-52
2023/09/17 10:38:03;;;;;;;2.70;2.50;;;26.70;68.60;;;;;;5028132;28;20072;-48
2023/09/17 10:40:31;;;;;;;3.22;2.50;;;26.80;66.80;;;;;;5029068;28;20114;-47
2023/09/17 10:43:01;;;;;;;4.47;2.67;;;27.00;66.70;;;;;;5026618;28;20068;-52
2023/09/17 10:45:31;;;;;;;3.05;2.83;;;27.10;66.40;;;;;;5028856;28;20041;-51
2023/09/17 10:48:00;;;;;;;2.90;2.65;;;27.30;65.70;;;;;;5028375;28;20124;-52
2023/09/17 10:50:35;;;;;;;2.35;2.17;;;27.40;65.30;;;;;;5025889;28;20511;-49
2023/09/17 10:53:01;;;;;;;3.75;2.60;;;27.50;64.80;;;;;;5028883;28;20041;-52
2023/09/17 10:55:38;;;;;;;3.40;2.50;;;27.60;63.90;;;;;;5028598;28;20434;-54
2023/09/17 10:58:19;;;;;;;2.45;2.25;;;27.60;62.70;;;;;;5028341;28;20452;-50
2023/09/17 11:00:47;;;;;;;2.67;2.38;;;27.80;63.40;;;;;;5023342;28;20124;-51
2023/09/17 11:03:19;;;;;;;3.05;2.75;;;27.80;62.70;;;;;;5028627;28;20073;-48
2023/09/17 11:05:50;;;;;;;2.70;2.50;;;27.90;62.40;;;;;;5025864;28;20492;-52
2023/09/17 11:08:17;;;;;;;3.65;2.55;;;28.00;62.80;;;;;;5028416;28;20384;-52
2023/09/17 11:10:45;;;;;;;3.08;2.58;;;28.00;62.10;;;;;;5028902;28;20049;-53
2023/09/17 11:13:13;;;;;;;3.13;2.67;;;28.00;62.70;;;;;;5026247;28;20116;-53
2023/09/17 11:15:46;;;;;;;2.60;2.40;;;28.00;62.40;;;;;;5030386;28;20096;-50
2023/09/17 11:18:19;;;;;;;7.82;2.83;;;28.10;63.10;;;;;;5026708;28;20038;-49
2023/09/17 11:21:06;;;;;;;9.90;3.47;;;28.20;62.30;;;;;;5031626;28;20060;-52
2023/09/17 11:23:44;;;;;;;3.33;2.30;;;28.20;61.60;;;;;;5028830;28;20677;-50
2023/09/17 11:26:17;;;;;;;4.90;3.45;;;28.30;60.70;;;;;;5029942;28;20499;-53
2023/09/17 11:28:50;;;;;;;3.55;2.50;;;28.30;59.80;;;;;;5031734;28;20410;-51
2023/09/17 11:31:17;;;;;;;2.97;2.75;;;28.40;59.90;;;;;;5031337;28;20088;-48
2023/09/17 11:33:44;;;;;;;3.53;2.60;;;28.30;59.80;;;;;;5029097;28;20043;-49
2023/09/17 11:36:11;;;;;;;2.80;2.55;;;28.40;60.20;;;;;;5027951;28;20054;-53
2023/09/17 11:38:44;;;;;;;3.03;2.72;;;28.40;60.60;;;;;;5031299;28;20060;-53
2023/09/17 11:41:16;;;;;;;3.00;2.80;;;28.50;59.50;;;;;;5026532;28;20088;-49
2023/09/17 11:43:48;;;;;;;4.20;3.20;;;28.50;60.20;;;;;;5026377;28;20048;-51
2023/09/17 11:46:17;;;;;;;3.33;3.03;;;28.50;60.50;;;;;;5026437;28;20542;-51
2023/09/17 11:48:44;;;;;;;3.47;3.08;;;28.60;60.80;;;;;;5030742;28;20041;-54
2023/09/17 11:51:20;;;;;;;3.40;3.10;;;28.60;60.80;;;;;;5030238;28;20108;-49
2023/09/17 11:53:52;;;;;;;4.90;3.35;;;28.60;58.90;;;;;;5029648;28;20037;-47
2023/09/17 11:56:22;;;;;;;5.07;3.30;;;28.60;58.20;;;;;;5031712;28;20068;-52
2023/09/17 11:59:06;;;;;;;2.95;2.75;;;28.60;58.80;;;;;;5031004;28;20073;-48
2023/09/17 12:01:44;;;;;;;3.67;3.35;;;28.60;58.80;;;;;;5030058;28;20060;-48
2023/09/17 12:04:14;;;;;;;3.55;3.25;;;28.50;59.30;;;;;;5028539;28;20084;-52
2023/09/17 12:06:48;;;;;;;4.00;3.10;;;28.50;59.00;;;;;;5030878;28;20752;-52
2023/09/17 12:12:38;;;;;;;3.10;2.83;;;28.50;59.50;;;;;;5023633;28;20623;-51
2023/09/17 12:15:11;;;;;;;3.15;2.90;;;28.50;59.60;;;;;;5024207;28;20043;-52
2023/09/17 12:17:41;;;;;;;3.13;2.85;;;28.60;59.80;;;;;;5030718;28;20037;-50
2023/09/17 12:23:57;;;;;;;3.42;3.00;;;28.70;60.40;;;;;;5008952;28;20019;-50
2023/09/17 12:27:22;;;;;;;3.70;2.88;;;28.80;57.90;;;;;;5017119;28;20050;-56
2023/09/17 12:29:49;;;;;;;3.13;2.92;;;28.80;57.90;;;;;;5021155;28;20108;-50
2023/09/17 12:32:19;;;;;;;3.55;2.88;;;28.80;57.90;;;;;;5029962;28;20038;-52
2023/09/17 12:34:49;;;;;;;3.78;3.28;;;28.80;57.90;;;;;;5023765;28;20581;-50
2023/09/17 12:37:17;;;;;;;3.40;3.05;;;28.80;57.60;;;;;;5029819;28;20120;-53
2023/09/17 12:39:44;;;;;;;3.45;3.25;;;28.80;58.40;;;;;;5029830;28;20072;-52
2023/09/17 12:42:11;;;;;;;3.55;3.25;;;28.80;58.80;;;;;;5028677;28;20033;-49
2023/09/17 12:44:39;;;;;;;4.43;3.33;;;28.90;58.30;;;;;;5024540;28;20049;-49
2023/09/17 12:47:07;;;;;;;3.65;2.80;;;28.90;57.60;;;;;;5029635;28;20498;-51
2023/09/17 12:49:34;;;;;;;3.53;2.80;;;29.00;57.30;;;;;;5029010;28;20108;-52
2023/09/17 12:52:02;;;;;;;3.20;2.90;;;29.10;58.20;;;;;;5027906;28;20080;-52
2023/09/17 12:54:29;;;;;;;3.03;2.83;;;29.20;57.70;;;;;;5029827;28;20511;-52